Time;durP1;ratioP1;P1;durP2;ratioP2;P2;SDS_P1;SDS_P2;PMS_P1;PMS_P2;Temp;Humidity;BMP_temperature;BMP_pressure;BME280_temperature;BME280_humidity;BME280_pressure;Samples;Min_cycle;Max_cycle;Signal;HPM_P1;HPM_P2
2023/01/19 00:00:29;;;;;;;13.27;7.25;;;;;;;-5.50;100.00;96199.53;4954458;28;20450;-62
2023/01/19 00:02:55;;;;;;;16.08;7.13;;;;;;;-5.59;100.00;96198.78;4959948;28;20049;-62
2023/01/19 00:05:22;;;;;;;12.90;5.85;;;;;;;-5.65;100.00;96202.97;4959860;28;20494;-62
2023/01/19 00:07:48;;;;;;;11.82;5.78;;;;;;;-5.56;100.00;96206.34;4960499;28;20049;-62
2023/01/19 00:10:15;;;;;;;11.82;5.82;;;;;;;-5.71;100.00;96214.22;4960371;28;20077;-62
2023/01/19 00:12:42;;;;;;;14.63;7.15;;;;;;;-5.51;100.00;96209.28;4955655;28;20073;-62
2023/01/19 00:15:09;;;;;;;18.85;6.93;;;;;;;-5.51;100.00;96216.34;4958165;28;20050;-63
2023/01/19 00:17:35;;;;;;;14.40;5.97;;;;;;;-5.67;100.00;96212.06;4953835;28;20110;-63
2023/01/19 00:20:02;;;;;;;14.02;6.47;;;;;;;-5.77;100.00;96205.22;4955897;28;20157;-62
2023/01/19 00:22:29;;;;;;;13.98;6.80;;;;;;;-6.00;100.00;96210.50;4961427;28;20039;-63
2023/01/19 00:24:55;;;;;;;12.75;6.40;;;;;;;-6.00;100.00;96211.28;4961008;28;20126;-62
2023/01/19 00:27:22;;;;;;;12.18;6.85;;;;;;;-6.10;100.00;96212.56;4960879;28;20722;-62
2023/01/19 00:29:48;;;;;;;15.80;7.25;;;;;;;-6.14;100.00;96212.94;4956404;28;20070;-63
2023/01/19 00:32:16;;;;;;;13.57;7.35;;;;;;;-6.28;100.00;96217.13;4959993;28;20050;-62
2023/01/19 00:34:48;;;;;;;13.18;6.82;;;;;;;-6.17;100.00;96215.91;4956943;28;20047;-63
2023/01/19 00:37:16;;;;;;;10.90;6.53;;;;;;;-6.36;100.00;96214.53;4958609;28;20063;-62
2023/01/19 00:39:42;;;;;;;12.45;6.63;;;;;;;-6.40;100.00;96227.25;4954768;28;20062;-62
2023/01/19 00:44:57;;;;;;;14.30;7.30;;;;;;;-6.54;100.00;96228.78;4955605;28;20042;-62
2023/01/19 00:47:24;;;;;;;11.43;6.63;;;;;;;-6.61;100.00;96230.44;4955908;28;20046;-63
2023/01/19 00:49:51;;;;;;;11.65;7.25;;;;;;;-6.53;100.00;96232.22;4960236;28;20084;-62
2023/01/19 00:52:17;;;;;;;16.50;8.35;;;;;;;-6.66;100.00;96225.72;4957720;28;20054;-62
2023/01/19 00:54:44;;;;;;;10.27;7.22;;;;;;;-6.75;100.00;96225.91;4953491;28;20145;-62
2023/01/19 00:57:11;;;;;;;10.45;5.53;;;;;;;-6.72;100.00;96222.91;4961226;28;20043;-62
2023/01/19 00:59:37;;;;;;;10.20;5.63;;;;;;;-6.59;100.00;96225.84;4955754;28;20110;-62
2023/01/19 01:02:04;;;;;;;11.43;5.95;;;;;;;-6.46;100.00;96224.44;4955934;28;20055;-62
2023/01/19 01:04:31;;;;;;;14.50;7.28;;;;;;;-6.49;100.00;96222.97;4957088;28;20105;-63
2023/01/19 01:06:57;;;;;;;12.02;6.97;;;;;;;-6.46;100.00;96227.91;4956576;28;20073;-62
2023/01/19 01:09:23;;;;;;;8.80;5.20;;;;;;;-6.27;100.00;96233.72;4954594;28;20043;-62
2023/01/19 01:11:50;;;;;;;14.27;7.70;;;;;;;-6.10;100.00;96226.56;4952982;28;20089;-62
2023/01/19 01:14:17;;;;;;;12.98;5.72;;;;;;;-6.05;100.00;96233.97;4954939;28;20089;-63
2023/01/19 01:16:43;;;;;;;13.93;6.97;;;;;;;-6.07;100.00;96231.50;4957941;28;20650;-62
2023/01/19 01:19:10;;;;;;;16.55;8.63;;;;;;;-6.05;100.00;96228.69;4956012;28;20123;-63
2023/01/19 01:21:36;;;;;;;11.75;6.20;;;;;;;-6.02;100.00;96234.38;4961551;28;20089;-62
2023/01/19 01:24:03;;;;;;;11.63;6.25;;;;;;;-6.08;100.00;96234.31;4955537;28;20071;-62
2023/01/19 01:26:30;;;;;;;14.68;7.75;;;;;;;-6.06;100.00;96240.19;4961578;28;20539;-62
2023/01/19 01:28:56;;;;;;;10.23;6.32;;;;;;;-6.08;100.00;96237.72;4957744;28;20064;-63
2023/01/19 01:31:23;;;;;;;11.65;6.93;;;;;;;-6.23;100.00;96242.94;4954821;28;20506;-62
2023/01/19 01:33:50;;;;;;;14.13;6.65;;;;;;;-6.20;100.00;96239.97;4959069;28;20530;-62
2023/01/19 01:36:17;;;;;;;13.05;7.10;;;;;;;-6.20;100.00;96241.78;4953297;28;20039;-62
2023/01/19 01:38:44;;;;;;;13.00;8.30;;;;;;;-6.18;100.00;96243.25;4958012;28;20050;-62
2023/01/19 01:41:11;;;;;;;20.75;8.35;;;;;;;-6.12;100.00;96246.19;4954522;28;20081;-62
2023/01/19 01:43:57;;;;;;;16.45;8.60;;;;;;;-6.06;100.00;96238.41;4960761;28;20039;-62
2023/01/19 01:46:25;;;;;;;14.48;8.48;;;;;;;-5.99;100.00;96238.47;4954888;28;20101;-62
2023/01/19 01:49:04;;;;;;;13.77;8.27;;;;;;;-5.98;100.00;96239.31;4958251;28;20053;-62
2023/01/19 01:51:38;;;;;;;13.52;7.53;;;;;;;-6.00;100.00;96236.84;4953342;28;20066;-62
2023/01/19 01:54:28;;;;;;;11.60;6.05;;;;;;;-6.03;100.00;96242.50;4957500;28;20051;-62
2023/01/19 01:56:59;;;;;;;17.52;7.45;;;;;;;-5.98;100.00;96240.13;4956592;28;20399;-62
2023/01/19 01:59:33;;;;;;;14.45;8.07;;;;;;;-6.05;100.00;96236.59;4957305;28;20047;-62
2023/01/19 02:04:55;;;;;;;12.23;7.18;;;;;;;-6.05;100.00;96234.75;4955371;28;20852;-62
2023/01/19 02:15:42;;;;;;;12.93;6.05;;;;;;;-6.09;100.00;96244.00;4960608;28;20050;-62
2023/01/19 02:18:09;;;;;;;19.10;7.85;;;;;;;-5.96;100.00;96237.31;4962585;28;20073;-62
2023/01/19 02:20:39;;;;;;;12.05;6.65;;;;;;;-5.91;100.00;96235.78;4959518;28;20110;-62
2023/01/19 02:23:17;;;;;;;11.88;6.53;;;;;;;-5.86;100.00;96237.91;4960972;28;20038;-62
2023/01/19 02:25:44;;;;;;;9.05;5.93;;;;;;;-5.81;100.00;96234.72;4957705;28;20047;-62
2023/01/19 02:28:10;;;;;;;12.52;7.07;;;;;;;-5.80;100.00;96234.56;4962819;28;20057;-62
2023/01/19 02:30:39;;;;;;;11.88;6.00;;;;;;;-5.85;100.00;96238.72;4961049;28;20114;-62
2023/01/19 02:33:06;;;;;;;12.88;6.03;;;;;;;-5.87;100.00;96236.25;4953647;28;20047;-62
2023/01/19 02:35:36;;;;;;;11.63;6.05;;;;;;;-5.92;100.00;96239.44;4961790;28;20081;-62
2023/01/19 02:38:05;;;;;;;10.52;6.68;;;;;;;-6.03;100.00;96234.59;4962158;28;20604;-62
2023/01/19 02:40:32;;;;;;;10.23;6.03;;;;;;;-6.03;100.00;96237.22;4961740;28;20039;-62
2023/01/19 02:42:59;;;;;;;9.65;6.05;;;;;;;-6.03;100.00;96234.59;4965373;28;20540;-63
2023/01/19 02:45:27;;;;;;;11.15;6.55;;;;;;;-5.95;100.00;96238.94;4960192;28;20035;-62
2023/01/19 02:47:53;;;;;;;10.32;6.03;;;;;;;-5.98;100.00;96226.13;4963704;28;20074;-63
2023/01/19 02:50:55;;;;;;;15.43;7.22;;;;;;;-5.89;100.00;96238.25;4960103;28;20047;-62
2023/01/19 02:53:48;;;;;;;12.07;6.53;;;;;;;-5.94;100.00;96237.97;4956235;28;20525;-62
2023/01/19 02:56:34;;;;;;;14.15;7.93;;;;;;;-5.86;100.00;96240.56;4962725;28;20097;-62
2023/01/19 02:59:14;;;;;;;10.10;6.13;;;;;;;-5.80;100.00;96239.84;4964454;28;20081;-62
2023/01/19 03:01:46;;;;;;;14.23;6.72;;;;;;;-5.82;100.00;96238.38;4955677;28;20036;-62
2023/01/19 03:04:39;;;;;;;13.15;6.85;;;;;;;-5.80;100.00;96236.38;4959550;28;20536;-62
2023/01/19 03:07:16;;;;;;;11.80;6.07;;;;;;;-5.79;100.00;96238.03;4955788;28;20085;-62
2023/01/19 03:09:57;;;;;;;12.60;6.95;;;;;;;-5.81;100.00;96235.56;4953652;28;23253;-63
2023/01/19 03:12:38;;;;;;;11.02;6.68;;;;;;;-5.79;100.00;96244.09;4961720;28;20070;-62
2023/01/19 03:15:16;;;;;;;9.38;5.78;;;;;;;-5.70;100.00;96250.16;4959477;28;20106;-62
2023/01/19 03:17:47;;;;;;;10.23;5.35;;;;;;;-5.68;100.00;96248.16;4961237;28;20047;-62
2023/01/19 03:20:17;;;;;;;11.25;6.05;;;;;;;-5.71;100.00;96250.31;4962149;28;20101;-62
2023/01/19 03:22:45;;;;;;;9.85;6.03;;;;;;;-5.82;100.00;96255.00;4953889;28;20058;-62
2023/01/19 03:25:14;;;;;;;9.00;6.00;;;;;;;-5.71;100.00;96253.78;4958924;28;20546;-62
2023/01/19 03:27:43;;;;;;;12.20;6.95;;;;;;;-5.76;100.00;96253.47;4957888;28;20049;-62
2023/01/19 03:30:14;;;;;;;13.65;6.82;;;;;;;-5.91;100.00;96248.97;4958670;28;20672;-62
2023/01/19 03:32:50;;;;;;;10.15;5.40;;;;;;;-6.06;100.00;96245.47;4961250;28;20700;-62
2023/01/19 03:35:20;;;;;;;16.25;7.18;;;;;;;-6.15;100.00;96248.16;4958200;28;20125;-62
2023/01/19 03:37:51;;;;;;;11.07;6.35;;;;;;;-6.15;100.00;96248.16;4959585;28;20050;-62
2023/01/19 03:40:18;;;;;;;11.82;6.93;;;;;;;-6.12;100.00;96248.81;4969391;28;20130;-62
2023/01/19 03:42:46;;;;;;;12.65;6.53;;;;;;;-6.04;100.00;96251.41;4955245;28;20049;-62
2023/01/19 03:45:13;;;;;;;10.48;6.93;;;;;;;-6.09;100.00;96245.84;4955900;28;20121;-62
2023/01/19 03:47:40;;;;;;;13.88;6.35;;;;;;;-6.04;100.00;96252.22;4959132;28;20077;-62
2023/01/19 03:50:15;;;;;;;13.25;7.55;;;;;;;-6.04;100.00;96246.13;4959826;28;20043;-62
2023/01/19 03:52:42;;;;;;;15.43;7.95;;;;;;;-6.08;100.00;96250.13;4956340;28;20708;-62
2023/01/19 03:55:09;;;;;;;9.98;5.75;;;;;;;-5.99;100.00;96249.03;4962107;28;20134;-62
2023/01/19 03:57:36;;;;;;;11.93;6.18;;;;;;;-6.00;100.00;96252.66;4954345;28;20086;-62
2023/01/19 04:00:03;;;;;;;11.13;6.88;;;;;;;-5.91;100.00;96256.06;4957897;28;20050;-62
2023/01/19 04:02:37;;;;;;;12.45;7.10;;;;;;;-6.06;100.00;96266.56;4957295;28;20058;-62
2023/01/19 04:05:04;;;;;;;11.68;6.53;;;;;;;-6.13;100.00;96261.16;4960937;28;20050;-62
2023/01/19 04:07:30;;;;;;;11.93;5.95;;;;;;;-6.09;100.00;96269.56;4960056;28;20039;-62
2023/01/19 04:09:57;;;;;;;12.73;6.15;;;;;;;-6.17;100.00;96268.59;4954961;28;20042;-62
2023/01/19 04:12:23;;;;;;;9.52;5.18;;;;;;;-6.10;100.00;96267.91;4960411;28;20101;-62
2023/01/19 04:14:50;;;;;;;13.65;6.63;;;;;;;-6.15;100.00;96269.25;4957618;28;20073;-62
2023/01/19 04:17:16;;;;;;;12.27;5.78;;;;;;;-6.16;100.00;96275.50;4959140;28;20035;-62
2023/01/19 04:19:44;;;;;;;11.48;6.15;;;;;;;-6.12;100.00;96277.81;4959582;28;20047;-62
2023/01/19 04:22:10;;;;;;;9.50;5.43;;;;;;;-6.17;100.00;96279.16;4955981;28;20063;-62
2023/01/19 04:24:37;;;;;;;13.48;6.93;;;;;;;-6.19;100.00;96280.31;4959959;28;20086;-63
2023/01/19 04:27:03;;;;;;;11.80;6.55;;;;;;;-6.20;100.00;96278.69;4956534;28;20578;-62
2023/01/19 04:29:30;;;;;;;9.15;5.22;;;;;;;-6.15;100.00;96282.41;4954713;28;20072;-62
2023/01/19 04:31:56;;;;;;;10.60;6.13;;;;;;;-6.14;100.00;96277.97;4955037;28;20082;-62
2023/01/19 04:34:23;;;;;;;14.27;5.22;;;;;;;-6.08;100.00;96279.09;4953860;28;20111;-62
2023/01/19 04:36:50;;;;;;;10.60;5.53;;;;;;;-5.88;100.00;96277.63;4961622;28;20038;-62
2023/01/19 04:39:17;;;;;;;9.18;5.57;;;;;;;-5.81;100.00;96276.91;4955628;28;20046;-62
2023/01/19 04:41:43;;;;;;;9.45;5.40;;;;;;;-5.80;100.00;96281.19;4954339;28;20031;-62
2023/01/19 04:44:10;;;;;;;10.88;5.53;;;;;;;-5.68;100.00;96274.50;4959516;28;20051;-62
2023/01/19 04:46:36;;;;;;;7.75;4.32;;;;;;;-5.65;100.00;96275.97;4952953;28;20123;-62
2023/01/19 04:49:03;;;;;;;9.65;4.80;;;;;;;-5.58;100.00;96276.09;4958257;28;20519;-62
2023/01/19 04:51:29;;;;;;;11.10;5.88;;;;;;;-5.48;100.00;96274.84;4951965;28;20042;-62
2023/01/19 04:53:56;;;;;;;12.43;6.18;;;;;;;-5.41;100.00;96275.00;4958427;28;20054;-62
2023/01/19 04:56:23;;;;;;;16.98;7.20;;;;;;;-5.47;100.00;96275.69;4954182;28;20054;-62
2023/01/19 04:58:49;;;;;;;12.55;8.02;;;;;;;-5.56;100.00;96279.38;4959460;28;20053;-62
2023/01/19 05:01:16;;;;;;;10.80;5.90;;;;;;;-5.55;100.00;96279.22;4950207;28;20045;-62
2023/01/19 05:03:42;;;;;;;11.35;5.85;;;;;;;-5.61;100.00;96278.09;4953131;28;20542;-62
2023/01/19 05:06:09;;;;;;;10.25;5.03;;;;;;;-5.55;100.00;96278.38;4956586;28;20584;-62
2023/01/19 05:08:35;;;;;;;8.80;5.18;;;;;;;-5.44;100.00;96279.78;4957646;28;20093;-62
2023/01/19 05:11:02;;;;;;;7.55;4.60;;;;;;;-5.46;100.00;96282.59;4951885;28;20115;-62
2023/01/19 05:13:28;;;;;;;9.15;5.70;;;;;;;-5.42;100.00;96281.25;4950236;28;20035;-62
2023/01/19 05:15:55;;;;;;;9.15;4.68;;;;;;;-5.30;100.00;96289.56;4950794;28;20675;-62
2023/01/19 05:18:21;;;;;;;7.50;4.35;;;;;;;-5.35;100.00;96287.47;4955454;28;20498;-62
2023/01/19 05:20:48;;;;;;;10.50;5.45;;;;;;;-5.45;100.00;96286.91;4949172;28;20042;-62
2023/01/19 05:23:14;;;;;;;8.68;4.88;;;;;;;-5.45;100.00;96300.09;4945243;28;20098;-63
2023/01/19 05:25:41;;;;;;;9.10;5.45;;;;;;;-5.45;100.00;96297.44;4948608;28;20075;-62
2023/01/19 05:28:08;;;;;;;8.85;5.10;;;;;;;-5.39;100.00;96301.16;4957863;28;20050;-63
2023/01/19 05:30:35;;;;;;;9.07;4.85;;;;;;;-5.46;100.00;96295.78;4949183;28;20050;-62
2023/01/19 05:33:01;;;;;;;8.88;4.53;;;;;;;-5.62;100.00;96300.19;4954640;28;20047;-62
2023/01/19 05:35:28;;;;;;;7.78;4.32;;;;;;;-5.66;100.00;96301.53;4952699;28;20051;-62
2023/01/19 05:38:01;;;;;;;10.25;5.53;;;;;;;-5.75;100.00;96292.84;4952231;28;20039;-63
2023/01/19 05:40:28;;;;;;;9.80;4.53;;;;;;;-5.70;100.00;96300.25;4951387;28;20118;-62
2023/01/19 05:42:58;;;;;;;11.73;5.85;;;;;;;-5.72;100.00;96310.16;4958715;28;20165;-62
2023/01/19 05:45:28;;;;;;;10.13;5.05;;;;;;;-5.68;100.00;96310.63;4958475;28;20513;-62
2023/01/19 05:47:55;;;;;;;11.68;5.63;;;;;;;-5.64;100.00;96307.44;4960548;28;20419;-62
2023/01/19 05:50:22;;;;;;;10.02;4.97;;;;;;;-5.55;100.00;96312.66;4955308;28;20051;-63
2023/01/19 05:52:48;;;;;;;8.98;4.68;;;;;;;-5.63;100.00;96309.09;4950370;28;20532;-62
2023/01/19 05:55:15;;;;;;;9.75;4.90;;;;;;;-5.53;100.00;96318.59;4959269;28;20054;-62
2023/01/19 05:57:42;;;;;;;12.15;5.72;;;;;;;-5.45;100.00;96321.19;4952370;28;20819;-62
2023/01/19 06:00:10;;;;;;;9.82;5.47;;;;;;;-5.41;99.99;96321.66;4957661;28;20800;-62
2023/01/19 06:02:38;;;;;;;10.80;5.38;;;;;;;-5.42;100.00;96323.44;4958771;28;20047;-62
2023/01/19 06:05:05;;;;;;;8.52;5.07;;;;;;;-5.38;100.00;96334.50;4961028;28;20078;-63
2023/01/19 06:07:31;;;;;;;10.18;5.45;;;;;;;-5.34;99.98;96327.88;4955633;28;20062;-62
2023/01/19 06:09:58;;;;;;;10.18;5.45;;;;;;;-5.20;99.36;96339.44;4957206;28;20047;-62
2023/01/19 06:12:24;;;;;;;9.38;5.30;;;;;;;-5.14;98.86;96336.13;4955273;28;20609;-63
2023/01/19 06:14:51;;;;;;;11.52;5.40;;;;;;;-5.19;98.45;96337.63;4959743;28;20114;-62
2023/01/19 06:17:17;;;;;;;10.82;5.75;;;;;;;-5.13;98.82;96339.56;4954777;28;20569;-62
2023/01/19 06:19:44;;;;;;;9.32;4.57;;;;;;;-5.11;98.38;96340.22;4957255;28;20097;-62
2023/01/19 06:22:11;;;;;;;9.90;5.57;;;;;;;-5.12;98.84;96339.38;4957538;28;20043;-62
2023/01/19 06:24:37;;;;;;;12.43;7.20;;;;;;;-5.26;100.00;96341.00;4957718;28;20543;-62
2023/01/19 06:27:05;;;;;;;16.13;6.78;;;;;;;-5.42;100.00;96343.75;4956502;28;20071;-62
2023/01/19 06:29:31;;;;;;;9.15;5.78;;;;;;;-5.45;100.00;96339.66;4959967;28;20047;-63
2023/01/19 06:31:58;;;;;;;13.07;7.45;;;;;;;-5.49;100.00;96335.72;4961443;28;20067;-62
2023/01/19 06:34:27;;;;;;;12.48;6.60;;;;;;;-5.43;100.00;96344.72;4958030;28;20081;-63
2023/01/19 06:36:57;;;;;;;13.27;6.57;;;;;;;-5.50;100.00;96341.97;4959147;28;20038;-62
2023/01/19 06:39:24;;;;;;;12.32;5.80;;;;;;;-5.27;100.00;96351.72;4955777;28;20051;-62
2023/01/19 06:41:50;;;;;;;9.48;5.90;;;;;;;-5.04;100.00;96349.06;4961568;28;20035;-62
2023/01/19 06:44:17;;;;;;;11.50;5.80;;;;;;;-4.93;100.00;96347.81;4963457;28;20105;-63
2023/01/19 06:46:43;;;;;;;11.30;6.20;;;;;;;-5.22;100.00;96349.38;4947966;28;20051;-63
2023/01/19 06:49:10;;;;;;;9.35;5.45;;;;;;;-5.65;100.00;96352.47;4962170;28;20589;-63
2023/01/19 06:51:36;;;;;;;12.23;5.95;;;;;;;-5.58;100.00;96352.59;4957029;28;20485;-62
2023/01/19 06:54:03;;;;;;;12.32;6.47;;;;;;;-5.37;100.00;96354.59;4959294;28;20066;-63
2023/01/19 06:56:29;;;;;;;8.88;5.13;;;;;;;-5.22;100.00;96360.75;4955169;28;20125;-62
2023/01/19 06:58:56;;;;;;;12.00;6.45;;;;;;;-5.16;100.00;96358.41;4957053;28;20105;-62
2023/01/19 07:01:23;;;;;;;10.18;6.47;;;;;;;-5.13;100.00;96353.59;4958002;28;20065;-63
2023/01/19 07:03:50;;;;;;;11.23;7.18;;;;;;;-5.19;100.00;96356.94;4957940;28;20094;-63
2023/01/19 07:06:17;;;;;;;14.02;7.25;;;;;;;-5.27;100.00;96354.38;4958264;28;20094;-60
2023/01/19 07:08:43;;;;;;;12.88;6.13;;;;;;;-5.23;100.00;96360.94;4962186;28;20094;-61
2023/01/19 07:11:11;;;;;;;14.30;7.38;;;;;;;-5.30;100.00;96352.91;4957258;28;20035;-60
2023/01/19 07:13:57;;;;;;;11.75;6.10;;;;;;;-5.41;100.00;96348.88;4957217;28;20039;-61
2023/01/19 07:16:24;;;;;;;12.15;7.13;;;;;;;-5.41;100.00;96346.22;4960733;28;20102;-60
2023/01/19 07:18:50;;;;;;;12.00;5.63;;;;;;;-5.23;100.00;96353.03;4957141;28;20049;-62
2023/01/19 07:21:17;;;;;;;13.32;7.22;;;;;;;-5.25;100.00;96352.34;4953679;28;20494;-61
2023/01/19 07:23:47;;;;;;;11.57;6.38;;;;;;;-5.66;100.00;96349.03;4953408;28;20039;-60
2023/01/19 07:26:17;;;;;;;11.45;5.90;;;;;;;-5.35;100.00;96350.78;4953157;28;21326;-61
2023/01/19 07:28:44;;;;;;;12.70;6.18;;;;;;;-5.07;100.00;96353.88;4956217;28;20137;-61
2023/01/19 07:31:14;;;;;;;13.25;6.10;;;;;;;-4.84;100.00;96367.03;4957259;28;20081;-61
2023/01/19 07:33:40;;;;;;;10.30;5.93;;;;;;;-4.72;99.23;96364.81;4949148;28;20061;-61
2023/01/19 07:36:08;;;;;;;7.30;4.63;;;;;;;-4.70;98.70;96368.06;4955917;28;20077;-61
2023/01/19 07:38:34;;;;;;;11.52;6.25;;;;;;;-4.79;98.68;96366.50;4960461;28;20049;-60
2023/01/19 07:41:02;;;;;;;14.13;6.07;;;;;;;-4.96;98.78;96361.38;4960723;28;20042;-61
2023/01/19 07:43:29;;;;;;;12.13;6.22;;;;;;;-5.15;100.00;96363.50;4956637;28;20046;-62
2023/01/19 07:46:00;;;;;;;12.75;5.90;;;;;;;-5.18;100.00;96361.22;4958087;28;20417;-61
2023/01/19 07:48:27;;;;;;;14.65;8.30;;;;;;;-5.26;100.00;96363.91;4958940;28;20046;-61
2023/01/19 07:51:04;;;;;;;11.45;6.07;;;;;;;-5.32;100.00;96364.63;4954395;28;20065;-62
2023/01/19 07:53:31;;;;;;;11.95;6.20;;;;;;;-5.21;100.00;96364.19;4961641;28;20047;-60
2023/01/19 07:55:57;;;;;;;14.55;6.57;;;;;;;-5.19;100.00;96367.50;4958593;28;20077;-61
2023/01/19 07:58:25;;;;;;;10.73;6.25;;;;;;;-5.13;100.00;96377.34;4956204;28;20065;-58
2023/01/19 08:00:51;;;;;;;15.68;7.57;;;;;;;-5.08;100.00;96376.81;4951916;28;20047;-54
2023/01/19 08:03:19;;;;;;;13.27;7.57;;;;;;;-5.04;100.00;96380.75;4953844;28;20054;-53
2023/01/19 08:05:51;;;;;;;13.13;6.75;;;;;;;-5.03;100.00;96384.19;4955269;28;20046;-54
2023/01/19 08:08:18;;;;;;;13.65;7.45;;;;;;;-5.01;100.00;96387.50;4955403;28;20058;-56
2023/01/19 08:10:48;;;;;;;10.95;6.35;;;;;;;-5.00;100.00;96391.78;4952777;28;20616;-58
2023/01/19 08:13:15;;;;;;;9.93;5.90;;;;;;;-4.93;100.00;96398.00;4958233;28;20043;-56
2023/01/19 08:15:41;;;;;;;11.75;7.13;;;;;;;-4.80;100.00;96389.44;4952310;28;20047;-52
2023/01/19 08:18:10;;;;;;;12.57;6.18;;;;;;;-4.65;100.00;96396.59;4962166;28;20129;-54
2023/01/19 08:20:37;;;;;;;12.45;6.68;;;;;;;-4.61;100.00;96397.88;4957821;28;20638;-54
2023/01/19 08:23:04;;;;;;;15.43;8.98;;;;;;;-4.36;100.00;96406.38;4950147;28;20682;-55
2023/01/19 08:25:33;;;;;;;10.52;5.95;;;;;;;-4.11;100.00;96386.78;4957224;28;20046;-56
2023/01/19 08:28:01;;;;;;;11.20;6.15;;;;;;;-3.86;99.25;96384.69;4953351;28;20137;-58
2023/01/19 08:30:29;;;;;;;20.33;9.88;;;;;;;-3.60;97.56;96387.81;4958176;28;20043;-59
2023/01/19 08:33:02;;;;;;;11.07;6.60;;;;;;;-3.46;96.91;96383.50;4957894;28;20038;-57
2023/01/19 08:35:30;;;;;;;10.55;5.15;;;;;;;-3.33;96.09;96390.75;4948169;28;20043;-59
2023/01/19 08:38:00;;;;;;;9.43;4.45;;;;;;;-3.22;96.26;96395.56;4954659;28;20047;-60
2023/01/19 08:40:28;;;;;;;13.00;6.63;;;;;;;-3.18;96.41;96394.16;4950914;28;20043;-61
2023/01/19 08:42:59;;;;;;;11.65;6.78;;;;;;;-3.15;95.97;96393.78;4950740;28;20043;-60
2023/01/19 08:45:28;;;;;;;12.80;8.82;;;;;;;-3.28;96.53;96396.31;4952044;28;20049;-59
2023/01/19 08:47:57;;;;;;;12.18;7.20;;;;;;;-3.25;96.75;96400.41;4949438;28;20425;-59
2023/01/19 08:50:25;;;;;;;10.95;6.40;;;;;;;-3.20;96.40;96404.13;4950701;28;20086;-61
2023/01/19 08:52:54;;;;;;;13.23;6.78;;;;;;;-3.18;95.74;96403.94;4944867;28;20073;-62
2023/01/19 08:55:21;;;;;;;11.35;5.13;;;;;;;-2.99;95.35;96404.31;4949185;28;20114;-60
2023/01/19 08:57:52;;;;;;;8.60;5.00;;;;;;;-2.84;94.36;96404.25;4952510;28;20073;-59
2023/01/19 09:00:19;;;;;;;8.23;4.95;;;;;;;-2.71;93.45;96407.00;4959451;28;20133;-59
2023/01/19 09:02:47;;;;;;;13.95;7.72;;;;;;;-2.72;93.10;96404.56;4956817;28;20050;-60
2023/01/19 09:05:14;;;;;;;14.52;6.63;;;;;;;-2.69;93.68;96406.81;4954899;28;20125;-60
2023/01/19 09:07:42;;;;;;;8.35;4.68;;;;;;;-2.67;94.09;96408.28;4956295;28;20476;-60
2023/01/19 09:10:09;;;;;;;9.60;5.53;;;;;;;-2.65;93.86;96405.44;4956807;28;20049;-59
2023/01/19 09:12:36;;;;;;;9.98;4.85;;;;;;;-2.63;94.00;96414.00;4956359;28;20074;-59
2023/01/19 09:15:03;;;;;;;11.65;6.07;;;;;;;-2.67;94.05;96416.22;4955187;28;20049;-61
2023/01/19 09:17:30;;;;;;;9.82;5.22;;;;;;;-2.59;94.44;96415.25;4952739;28;20510;-60
2023/01/19 09:19:57;;;;;;;10.68;5.38;;;;;;;-2.58;94.92;96416.88;4956940;28;20043;-60
2023/01/19 09:22:24;;;;;;;8.98;4.57;;;;;;;-2.54;94.42;96414.69;4957976;28;20047;-60
2023/01/19 09:24:50;;;;;;;9.38;4.93;;;;;;;-2.47;94.99;96412.09;4956523;28;20043;-60
2023/01/19 09:27:17;;;;;;;7.57;4.35;;;;;;;-2.47;94.06;96414.75;4959247;28;20043;-60
2023/01/19 09:29:51;;;;;;;11.68;5.35;;;;;;;-2.37;94.64;96424.00;4961323;28;20084;-59
2023/01/19 09:32:19;;;;;;;8.80;4.75;;;;;;;-2.26;94.14;96409.38;4956117;28;20058;-60
2023/01/19 09:34:46;;;;;;;12.82;5.95;;;;;;;-2.05;94.00;96420.94;4962393;28;20049;-60
2023/01/19 09:37:14;;;;;;;104.63;36.10;;;;;;;-1.88;92.95;96412.66;4959375;28;20070;-61
2023/01/19 09:39:41;;;;;;;13.38;8.18;;;;;;;-1.87;91.53;96411.66;4953766;28;20045;-61
2023/01/19 09:42:50;;;;;;;14.35;7.65;;;;;;;-1.73;91.84;96418.66;4952669;28;20145;-62
2023/01/19 09:45:26;;;;;;;16.80;8.85;;;;;;;-1.89;91.32;96413.66;4955545;28;20509;-62
2023/01/19 09:47:54;;;;;;;19.58;10.18;;;;;;;-1.99;92.51;96414.84;4953825;28;20047;-59
2023/01/19 09:50:30;;;;;;;13.95;6.35;;;;;;;-1.86;92.90;96415.94;4952881;28;20047;-60
2023/01/19 09:53:12;;;;;;;19.95;10.55;;;;;;;-1.90;92.38;96418.16;4952769;28;20067;-60
2023/01/19 09:55:41;;;;;;;19.98;9.77;;;;;;;-1.83;93.13;96420.84;4959915;28;20086;-61
2023/01/19 09:58:15;;;;;;;15.68;7.05;;;;;;;-1.79;93.61;96411.50;4959501;28;20053;-60
2023/01/19 10:00:49;;;;;;;29.00;14.40;;;;;;;-1.76;92.80;96413.75;4957719;28;20058;-60
2023/01/19 10:03:16;;;;;;;10.98;5.22;;;;;;;-1.70;92.46;96418.25;4959183;28;22156;-60
2023/01/19 10:05:54;;;;;;;19.88;11.35;;;;;;;-1.64;92.07;96415.81;4956071;28;20057;-59
2023/01/19 10:08:28;;;;;;;19.60;10.85;;;;;;;-1.64;91.50;96415.81;4956036;28;20574;-62
2023/01/19 10:10:56;;;;;;;11.27;6.18;;;;;;;-1.59;91.64;96424.84;4962139;28;20045;-59
2023/01/19 10:13:43;;;;;;;9.05;4.78;;;;;;;-1.65;91.27;96412.38;4956343;28;20043;-59
2023/01/19 10:19:56;;;;;;;12.10;6.57;;;;;;;-1.63;91.53;96418.28;4952976;28;20047;-60
2023/01/19 10:22:25;;;;;;;13.07;4.78;;;;;;;-1.64;91.87;96408.69;4955332;28;20074;-60
2023/01/19 10:24:56;;;;;;;9.85;5.00;;;;;;;-1.65;92.36;96404.41;4957203;28;20402;-60
2023/01/19 10:27:27;;;;;;;7.70;4.63;;;;;;;-1.67;92.73;96410.94;4955598;28;20050;-60
2023/01/19 10:29:54;;;;;;;7.75;4.25;;;;;;;-1.68;92.85;96403.97;4957724;28;20606;-60
2023/01/19 10:32:34;;;;;;;10.77;5.05;;;;;;;-1.75;92.48;96406.59;4948310;28;20109;-62
2023/01/19 10:35:25;;;;;;;9.45;3.88;;;;;;;-1.72;92.22;96408.84;4958075;28;20038;-58
2023/01/19 10:37:58;;;;;;;7.35;3.90;;;;;;;-1.71;92.03;96405.19;4960296;28;20105;-59
2023/01/19 10:40:35;;;;;;;11.10;4.93;;;;;;;-1.67;92.13;96405.63;4948799;28;20043;-61
2023/01/19 10:43:35;;;;;;;9.25;4.57;;;;;;;-1.53;92.20;96411.78;4953257;28;20067;-59
2023/01/19 10:46:05;;;;;;;15.02;5.45;;;;;;;-1.41;91.57;96414.72;4958006;28;20078;-58
2023/01/19 10:48:38;;;;;;;11.50;6.75;;;;;;;-1.43;91.93;96404.28;4952943;28;20836;-60
2023/01/19 10:51:07;;;;;;;9.80;4.65;;;;;;;-1.44;91.72;96414.06;4952339;28;20074;-59
2023/01/19 10:53:34;;;;;;;9.82;5.43;;;;;;;-1.60;91.28;96417.91;4947693;28;20043;-60
2023/01/19 10:56:21;;;;;;;11.15;7.07;;;;;;;-1.63;91.65;96420.09;4960067;28;20047;-61
2023/01/19 10:58:47;;;;;;;10.45;6.05;;;;;;;-1.53;91.64;96422.41;4956997;28;20106;-59
2023/01/19 11:01:23;;;;;;;8.32;5.20;;;;;;;-1.40;90.62;96421.66;4954939;28;20047;-59
2023/01/19 11:03:52;;;;;;;7.25;3.78;;;;;;;-1.22;90.35;96413.94;4958055;28;20043;-60
2023/01/19 11:06:18;;;;;;;6.55;3.17;;;;;;;-0.98;90.85;96413.56;4959576;28;20097;-60
2023/01/19 11:08:47;;;;;;;10.15;4.43;;;;;;;-0.74;88.74;96408.72;4958676;28;20050;-59
2023/01/19 11:11:13;;;;;;;9.05;4.35;;;;;;;-0.69;87.81;96407.09;4951437;28;20506;-60
2023/01/19 11:13:41;;;;;;;6.55;3.53;;;;;;;-0.52;87.99;96401.34;4955255;28;20121;-60
2023/01/19 11:16:16;;;;;;;8.70;3.65;;;;;;;-0.54;87.43;96400.72;4952416;28;20434;-59
2023/01/19 11:18:44;;;;;;;8.55;3.85;;;;;;;-0.63;86.66;96409.94;4952315;28;20058;-61
2023/01/19 11:21:14;;;;;;;8.60;3.67;;;;;;;-0.54;87.48;96409.53;4950934;28;20469;-60
2023/01/19 11:23:45;;;;;;;6.40;3.50;;;;;;;-0.58;86.88;96407.47;4950205;28;20109;-61
2023/01/19 11:26:23;;;;;;;9.33;4.13;;;;;;;-0.53;88.17;96402.34;4959987;28;20042;-58
2023/01/19 11:28:53;;;;;;;5.10;2.80;;;;;;;-0.48;86.78;96405.22;4956981;28;20105;-59
2023/01/19 11:31:29;;;;;;;7.75;3.75;;;;;;;-0.34;87.24;96407.91;4951322;28;20122;-61
2023/01/19 11:34:01;;;;;;;5.45;3.28;;;;;;;-0.12;84.59;96405.00;4959732;28;20034;-60
2023/01/19 11:36:31;;;;;;;10.93;5.07;;;;;;;-0.23;84.96;96395.81;4956512;28;20043;-60
2023/01/19 11:39:19;;;;;;;6.07;2.83;;;;;;;-0.20;84.34;96403.34;4958051;28;20054;-60
2023/01/19 11:41:49;;;;;;;12.18;5.95;;;;;;;-0.23;85.00;96398.47;4955290;28;20149;-59
2023/01/19 11:44:18;;;;;;;6.25;2.83;;;;;;;-0.29;85.13;96394.78;4957821;28;20046;-59
2023/01/19 11:46:48;;;;;;;6.45;3.72;;;;;;;-0.38;85.03;96396.03;4954735;28;20046;-59
2023/01/19 11:49:24;;;;;;;5.90;3.60;;;;;;;-0.42;85.08;96401.75;4959919;28;20651;-58